Time;durP1;ratioP1;P1;durP2;ratioP2;P2;SDS_P1;SDS_P2;PMS_P1;PMS_P2;Temp;Humidity;BMP_temperature;BMP_pressure;BME280_temperature;BME280_humidity;BME280_pressure;Samples;Min_cycle;Max_cycle;Signal;HPM_P1;HPM_P2
2022/01/10 00:00:08;;;;;;;89.95;23.58;;;1.60;99.90;;;;;;5090019;28;20048;-76
2022/01/10 00:02:34;;;;;;;89.43;22.27;;;1.60;99.90;;;;;;5087841;28;20043;-75
2022/01/10 00:04:59;;;;;;;95.43;23.50;;;1.60;99.90;;;;;;5094465;28;20028;-75
2022/01/10 00:07:25;;;;;;;93.60;23.25;;;1.50;99.90;;;;;;5083087;28;20046;-76
2022/01/10 00:09:50;;;;;;;84.10;22.85;;;1.50;99.90;;;;;;5092928;28;20078;-76
2022/01/10 00:12:16;;;;;;;88.10;23.30;;;1.50;99.90;;;;;;5087020;28;20039;-76
2022/01/10 00:14:41;;;;;;;79.05;22.35;;;1.40;99.90;;;;;;5089241;28;20482;-76
2022/01/10 00:17:07;;;;;;;84.53;22.33;;;1.50;99.90;;;;;;5097872;28;20475;-76
2022/01/10 00:19:32;;;;;;;93.43;22.92;;;1.40;99.90;;;;;;5088897;28;20502;-76
2022/01/10 00:21:58;;;;;;;90.45;24.30;;;1.40;99.90;;;;;;5071991;28;20036;-76
2022/01/10 00:24:23;;;;;;;86.70;23.58;;;1.40;99.90;;;;;;5088276;28;20043;-76
2022/01/10 00:26:49;;;;;;;97.93;25.67;;;1.40;99.90;;;;;;5081062;28;20037;-76
2022/01/10 00:29:15;;;;;;;102.05;25.88;;;1.50;99.90;;;;;;5090711;28;20081;-76
2022/01/10 00:31:41;;;;;;;91.50;25.15;;;1.40;99.90;;;;;;5093640;28;20039;-76
2022/01/10 00:34:07;;;;;;;106.57;24.38;;;1.50;99.90;;;;;;5100018;28;20036;-76
2022/01/10 00:36:33;;;;;;;118.97;25.38;;;1.40;99.90;;;;;;5088530;28;20092;-76
2022/01/10 00:38:59;;;;;;;102.22;25.25;;;1.40;99.90;;;;;;5089143;28;20131;-76
2022/01/10 00:41:24;;;;;;;83.75;24.70;;;1.40;99.90;;;;;;5089591;28;20051;-76
2022/01/10 00:43:51;;;;;;;92.03;24.17;;;1.40;99.90;;;;;;5092484;28;20189;-76
2022/01/10 00:46:17;;;;;;;105.20;25.77;;;1.40;99.90;;;;;;5092452;28;20048;-76
2022/01/10 00:48:43;;;;;;;83.00;24.00;;;1.30;99.90;;;;;;5072479;28;20032;-77
2022/01/10 00:51:08;;;;;;;74.80;20.83;;;1.20;99.90;;;;;;5077429;28;20612;-76
2022/01/10 00:53:34;;;;;;;76.78;22.00;;;1.20;99.90;;;;;;5071939;28;20039;-76
2022/01/10 00:56:00;;;;;;;83.45;23.05;;;1.20;99.90;;;;;;5086415;28;20036;-76
2022/01/10 00:58:26;;;;;;;84.15;22.48;;;1.10;99.90;;;;;;5083214;28;20090;-76
2022/01/10 01:00:51;;;;;;;85.93;24.00;;;1.10;99.90;;;;;;5094867;28;20036;-76
2022/01/10 01:03:17;;;;;;;86.07;25.55;;;1.10;99.90;;;;;;5086492;28;20430;-76
2022/01/10 01:05:44;;;;;;;107.20;27.10;;;1.00;99.90;;;;;;5087313;28;20066;-76
2022/01/10 01:08:12;;;;;;;111.00;27.35;;;1.00;99.90;;;;;;5098940;28;20047;-76
2022/01/10 01:13:37;;;;;;;114.82;29.17;;;1.10;99.90;;;;;;5085764;28;20048;-76
2022/01/10 01:24:08;;;;;;;82.07;24.15;;;1.00;99.90;;;;;;5088336;28;20116;-76
2022/01/10 01:26:46;;;;;;;85.22;25.50;;;0.90;99.90;;;;;;5091129;28;20043;-76
2022/01/10 01:29:16;;;;;;;98.68;25.83;;;0.90;99.90;;;;;;5087405;28;20319;-76
2022/01/10 01:31:43;;;;;;;105.93;27.20;;;0.80;99.90;;;;;;5088236;28;20032;-76
2022/01/10 01:34:10;;;;;;;87.63;24.85;;;0.80;99.90;;;;;;5086647;28;20036;-76
2022/01/10 01:36:36;;;;;;;73.93;22.98;;;0.80;99.90;;;;;;5065812;28;20044;-76
2022/01/10 01:39:10;;;;;;;93.53;24.52;;;0.80;99.90;;;;;;5096978;28;20028;-76
2022/01/10 01:41:40;;;;;;;77.03;24.42;;;0.80;99.90;;;;;;5090296;28;20474;-76
2022/01/10 01:44:06;;;;;;;91.10;23.23;;;0.70;99.90;;;;;;5092062;28;20040;-76
2022/01/10 01:46:34;;;;;;;87.43;25.83;;;0.70;99.90;;;;;;5073992;28;20079;-76
2022/01/10 01:49:00;;;;;;;94.45;25.83;;;0.70;99.90;;;;;;5075729;28;20339;-76
2022/01/10 01:51:26;;;;;;;89.28;25.85;;;0.60;99.90;;;;;;5096500;28;20040;-76
2022/01/10 01:53:52;;;;;;;89.00;24.83;;;0.60;99.90;;;;;;5084829;28;20037;-76
2022/01/10 01:56:19;;;;;;;97.10;27.27;;;0.60;99.90;;;;;;5087627;28;20546;-76
2022/01/10 01:58:45;;;;;;;121.55;29.25;;;0.50;99.90;;;;;;5070061;28;20051;-75
2022/01/10 02:01:16;;;;;;;98.65;27.92;;;0.50;99.90;;;;;;5086823;28;20532;-76
2022/01/10 02:03:42;;;;;;;89.93;27.98;;;0.40;99.90;;;;;;5087671;28;20043;-76
2022/01/10 02:06:09;;;;;;;85.30;27.05;;;0.50;99.90;;;;;;5087271;28;20131;-76
2022/01/10 02:08:36;;;;;;;91.50;27.52;;;0.50;99.90;;;;;;5085661;28;20119;-75
2022/01/10 02:11:03;;;;;;;101.53;28.58;;;0.40;99.90;;;;;;5082696;28;20040;-76
2022/01/10 02:13:28;;;;;;;85.25;26.30;;;0.40;99.90;;;;;;5081565;28;20035;-76
2022/01/10 02:16:02;;;;;;;84.68;26.42;;;0.40;99.90;;;;;;5087167;28;20054;-76
2022/01/10 02:18:28;;;;;;;105.60;27.85;;;0.40;99.90;;;;;;5083448;28;20036;-76
2022/01/10 02:20:57;;;;;;;96.03;29.05;;;0.40;99.90;;;;;;5088798;28;20376;-76
2022/01/10 02:23:23;;;;;;;103.30;29.88;;;0.30;99.90;;;;;;5084884;28;20505;-75
2022/01/10 02:25:49;;;;;;;101.85;30.45;;;0.30;99.90;;;;;;5097409;28;20036;-75
2022/01/10 02:28:15;;;;;;;108.90;29.30;;;0.30;99.90;;;;;;5091186;28;20032;-76
2022/01/10 02:30:40;;;;;;;98.45;29.20;;;0.20;99.90;;;;;;5102433;28;20044;-75
2022/01/10 02:33:07;;;;;;;93.50;29.35;;;0.30;99.90;;;;;;5091373;28;20118;-75
2022/01/10 02:35:40;;;;;;;108.03;29.85;;;0.20;99.90;;;;;;5074470;28;20040;-75
2022/01/10 02:38:06;;;;;;;90.47;28.15;;;0.20;99.90;;;;;;5089959;28;20040;-75
2022/01/10 02:40:33;;;;;;;105.00;28.42;;;0.20;99.90;;;;;;5090018;28;20385;-75
2022/01/10 02:43:00;;;;;;;103.90;28.55;;;0.20;99.90;;;;;;5091857;28;20040;-76
2022/01/10 02:45:26;;;;;;;107.85;28.70;;;0.20;99.90;;;;;;5091871;28;20039;-75
2022/01/10 02:47:53;;;;;;;90.63;26.48;;;0.20;99.90;;;;;;5092085;28;20081;-75
2022/01/10 02:50:20;;;;;;;82.43;27.15;;;0.20;99.90;;;;;;5090624;28;20039;-75
2022/01/10 02:52:46;;;;;;;99.80;28.05;;;0.10;99.90;;;;;;5091479;28;20054;-76
2022/01/10 02:55:13;;;;;;;99.75;28.27;;;0.10;99.90;;;;;;5083553;28;20477;-75
2022/01/10 02:57:39;;;;;;;80.95;25.00;;;0.10;99.90;;;;;;5075751;28;20094;-75
2022/01/10 03:00:09;;;;;;;100.85;27.85;;;0.10;99.90;;;;;;5090242;28;20028;-75
2022/01/10 03:02:36;;;;;;;179.88;29.98;;;0.10;99.90;;;;;;5087045;28;20074;-75
2022/01/10 03:05:04;;;;;;;202.57;32.45;;;0.10;99.90;;;;;;5085152;28;20089;-75
2022/01/10 03:07:29;;;;;;;106.55;28.40;;;0.00;99.90;;;;;;5095000;28;21259;-75
2022/01/10 03:09:55;;;;;;;99.32;26.60;;;-0.10;99.90;;;;;;5072936;28;20040;-75
2022/01/10 03:12:22;;;;;;;101.05;27.65;;;-0.20;99.90;;;;;;5089990;28;20074;-75
2022/01/10 03:14:47;;;;;;;90.50;28.45;;;-0.20;99.90;;;;;;5097249;28;20088;-75
2022/01/10 03:17:13;;;;;;;94.55;28.65;;;-0.20;99.90;;;;;;5090599;28;20466;-75
2022/01/10 03:19:40;;;;;;;89.30;28.77;;;-0.20;99.90;;;;;;5087826;28;20039;-75
2022/01/10 03:22:07;;;;;;;82.18;27.08;;;-0.10;99.90;;;;;;5090282;28;20032;-75
2022/01/10 03:24:33;;;;;;;63.05;23.80;;;-0.10;99.90;;;;;;5090965;28;20470;-75
2022/01/10 03:26:59;;;;;;;59.38;23.05;;;-0.10;99.90;;;;;;5090764;28;20043;-76
2022/01/10 03:29:24;;;;;;;54.30;21.95;;;-0.10;99.90;;;;;;5089985;28;20042;-75
2022/01/10 03:31:50;;;;;;;67.95;24.65;;;-0.10;99.90;;;;;;5089963;28;20044;-76
2022/01/10 03:34:16;;;;;;;83.35;27.17;;;-0.10;99.90;;;;;;5081223;28;20439;-76
2022/01/10 03:36:43;;;;;;;99.57;27.70;;;-0.10;99.90;;;;;;5087519;28;20031;-76
2022/01/10 03:39:09;;;;;;;81.10;25.85;;;-0.10;99.90;;;;;;5088767;28;20047;-75
2022/01/10 03:41:38;;;;;;;82.00;26.27;;;-0.10;99.90;;;;;;5101298;28;20459;-76
2022/01/10 03:44:04;;;;;;;93.55;26.25;;;-0.10;99.90;;;;;;5088654;28;20040;-76
2022/01/10 03:46:32;;;;;;;91.70;26.38;;;-0.20;99.90;;;;;;5072506;28;20393;-76
2022/01/10 03:48:58;;;;;;;307.98;34.78;;;-0.30;99.90;;;;;;5086533;28;20040;-75
2022/01/10 03:51:24;;;;;;;218.80;35.35;;;-0.30;99.90;;;;;;5091389;28;20050;-75
2022/01/10 03:53:49;;;;;;;199.00;31.95;;;-0.40;99.90;;;;;;5100978;28;20267;-75
2022/01/10 03:56:15;;;;;;;131.18;30.95;;;-0.40;99.90;;;;;;5104347;28;20450;-75
2022/01/10 03:58:40;;;;;;;115.32;31.52;;;-0.50;99.90;;;;;;5100281;28;20371;-75
2022/01/10 04:01:08;;;;;;;99.30;28.90;;;-0.60;99.90;;;;;;5088065;28;20093;-75
2022/01/10 04:03:35;;;;;;;96.85;28.58;;;-0.60;99.90;;;;;;5085399;28;20051;-75
2022/01/10 04:06:00;;;;;;;101.97;28.33;;;-0.60;99.90;;;;;;5095261;28;20047;-75
2022/01/10 04:08:26;;;;;;;104.32;27.30;;;-0.60;99.90;;;;;;5088437;28;20039;-75
2022/01/10 04:10:52;;;;;;;214.68;28.23;;;-0.60;99.90;;;;;;5077614;28;20040;-75
2022/01/10 04:13:18;;;;;;;121.53;25.45;;;-0.50;99.90;;;;;;5085205;28;20066;-75
2022/01/10 04:15:44;;;;;;;93.15;28.45;;;-0.50;99.90;;;;;;5085827;28;20043;-75
2022/01/10 04:18:09;;;;;;;90.82;27.45;;;-0.50;99.90;;;;;;5094861;28;20425;-75
2022/01/10 04:20:35;;;;;;;89.35;26.30;;;-0.50;99.90;;;;;;5095124;28;20036;-75
2022/01/10 04:23:01;;;;;;;70.63;25.58;;;-0.50;99.90;;;;;;5092747;28;20094;-75
2022/01/10 04:25:27;;;;;;;74.95;25.95;;;-0.60;99.90;;;;;;5093913;28;20027;-74
2022/01/10 04:27:52;;;;;;;78.07;26.60;;;-0.60;99.90;;;;;;5089259;28;20051;-75
2022/01/10 04:30:18;;;;;;;93.03;27.00;;;-0.60;99.90;;;;;;5088401;28;20505;-75
2022/01/10 04:32:44;;;;;;;79.10;25.42;;;-0.60;99.90;;;;;;5089138;28;20036;-75
2022/01/10 04:35:10;;;;;;;261.58;34.38;;;-0.60;99.90;;;;;;5072813;28;20078;-75
2022/01/10 04:37:36;;;;;;;249.65;32.80;;;-0.50;99.90;;;;;;5087948;28;20092;-75
2022/01/10 04:40:03;;;;;;;523.97;43.75;;;-0.50;99.90;;;;;;5089115;28;20439;-75
2022/01/10 04:42:28;;;;;;;110.13;27.05;;;-0.50;99.90;;;;;;5090974;28;20042;-75
2022/01/10 04:44:54;;;;;;;204.68;31.30;;;-0.50;99.90;;;;;;5101680;28;20044;-75
2022/01/10 04:47:20;;;;;;;142.35;30.08;;;-0.60;99.90;;;;;;5103268;28;20083;-75
2022/01/10 04:52:27;;;;;;;134.05;27.98;;;-0.70;99.90;;;;;;5089117;28;20044;-75
2022/01/10 04:54:52;;;;;;;172.57;26.27;;;-0.70;99.90;;;;;;5067569;28;20392;-75
2022/01/10 04:57:18;;;;;;;154.57;28.05;;;-0.80;99.90;;;;;;5095436;28;20195;-75
2022/01/10 04:59:43;;;;;;;118.70;24.85;;;-0.80;99.90;;;;;;5099085;28;20510;-76
2022/01/10 05:02:10;;;;;;;173.45;29.30;;;-0.70;99.90;;;;;;5092827;28;20032;-76
2022/01/10 05:04:36;;;;;;;99.38;26.88;;;-0.70;99.90;;;;;;5087861;28;20391;-76
2022/01/10 05:07:01;;;;;;;92.90;26.55;;;-0.70;99.90;;;;;;5089649;28;20123;-76
2022/01/10 05:09:27;;;;;;;109.72;28.10;;;-0.60;99.90;;;;;;5085739;28;20040;-76
2022/01/10 05:11:53;;;;;;;133.40;30.83;;;-0.60;99.90;;;;;;5093382;28;20417;-76
2022/01/10 05:14:18;;;;;;;153.07;35.55;;;-0.50;99.90;;;;;;5096392;28;20039;-76
2022/01/10 05:16:45;;;;;;;115.78;30.55;;;-0.50;99.90;;;;;;5079964;28;20027;-75
2022/01/10 05:19:10;;;;;;;107.45;30.92;;;-0.50;99.90;;;;;;5084455;28;20036;-76
2022/01/10 05:21:36;;;;;;;104.03;29.65;;;-0.50;99.90;;;;;;5095154;28;20040;-76
2022/01/10 05:24:02;;;;;;;92.75;28.63;;;-0.50;99.90;;;;;;5088412;28;20044;-76
2022/01/10 05:26:28;;;;;;;95.30;28.92;;;-0.40;99.90;;;;;;5088536;28;20223;-76
2022/01/10 05:28:55;;;;;;;82.63;28.25;;;-0.40;99.90;;;;;;5100021;28;20075;-76
2022/01/10 05:31:21;;;;;;;92.85;30.77;;;-0.30;99.90;;;;;;5088514;28;20047;-76
2022/01/10 05:33:47;;;;;;;106.78;30.98;;;-0.20;99.90;;;;;;5088297;28;20447;-76
2022/01/10 05:36:13;;;;;;;103.18;30.23;;;-0.20;99.90;;;;;;5086145;28;20089;-76
2022/01/10 05:38:38;;;;;;;106.47;30.35;;;-0.20;99.90;;;;;;5086005;28;20044;-76
2022/01/10 05:41:04;;;;;;;98.85;28.95;;;-0.20;99.90;;;;;;5080223;28;20122;-76
2022/01/10 05:43:29;;;;;;;99.00;29.70;;;-0.20;99.90;;;;;;5088033;28;20044;-76
2022/01/10 05:45:55;;;;;;;114.70;30.75;;;-0.20;99.90;;;;;;5082534;28;20086;-76
2022/01/10 05:48:25;;;;;;;92.40;28.27;;;-0.20;99.90;;;;;;5092699;28;20147;-76
2022/01/10 05:50:52;;;;;;;107.88;29.25;;;0.00;99.90;;;;;;5092896;28;20036;-76
2022/01/10 05:53:18;;;;;;;89.05;28.77;;;-0.10;99.90;;;;;;5093029;28;20074;-76
2022/01/10 05:55:44;;;;;;;105.55;29.80;;;-0.10;99.90;;;;;;5086357;28;20039;-76
2022/01/10 05:58:10;;;;;;;111.28;30.75;;;-0.10;99.90;;;;;;5066922;28;20036;-77
2022/01/10 06:00:36;;;;;;;99.65;29.33;;;-0.10;99.90;;;;;;5085047;28;20046;-76
2022/01/10 06:03:02;;;;;;;111.65;32.55;;;-0.10;99.90;;;;;;5085301;28;20046;-77
2022/01/10 06:05:31;;;;;;;103.40;30.58;;;0.00;99.90;;;;;;5081380;28;20129;-76
2022/01/10 06:07:58;;;;;;;120.38;33.60;;;0.00;99.90;;;;;;5084385;28;20028;-76
2022/01/10 06:10:24;;;;;;;107.38;31.83;;;0.00;99.90;;;;;;5082415;28;20039;-76
2022/01/10 06:12:50;;;;;;;106.95;33.03;;;0.10;99.90;;;;;;5086631;28;20048;-76
2022/01/10 06:15:16;;;;;;;107.55;32.13;;;0.10;99.90;;;;;;5081455;28;20387;-76
2022/01/10 06:17:41;;;;;;;102.65;31.92;;;0.00;99.90;;;;;;5094387;28;20115;-76
2022/01/10 06:20:07;;;;;;;101.88;31.98;;;0.00;99.90;;;;;;5095261;28;20033;-76
2022/01/10 06:22:33;;;;;;;98.68;31.35;;;0.00;99.90;;;;;;5069983;28;20094;-77
2022/01/10 06:24:59;;;;;;;107.47;31.92;;;0.00;99.90;;;;;;5087182;28;20036;-76
2022/01/10 06:27:25;;;;;;;95.93;29.30;;;0.00;99.90;;;;;;5087817;28;20040;-77
2022/01/10 06:29:51;;;;;;;92.07;29.75;;;0.00;99.90;;;;;;5083089;28;20122;-76
2022/01/10 06:32:16;;;;;;;84.00;27.67;;;0.00;99.90;;;;;;5087348;28;20040;-76
2022/01/10 06:34:42;;;;;;;84.70;28.08;;;0.00;99.90;;;;;;5087421;28;20032;-76
2022/01/10 06:37:07;;;;;;;89.18;28.20;;;0.00;99.90;;;;;;5070168;28;20111;-76
2022/01/10 06:39:33;;;;;;;102.93;34.58;;;0.00;99.90;;;;;;5087187;28;20036;-77
2022/01/10 06:41:59;;;;;;;105.45;34.55;;;-0.10;99.90;;;;;;5088835;28;20047;-77
2022/01/10 06:44:25;;;;;;;94.38;31.50;;;-0.10;99.90;;;;;;5095545;28;20032;-77
2022/01/10 06:46:51;;;;;;;125.53;35.60;;;-0.10;99.90;;;;;;5087810;28;20047;-77
2022/01/10 06:49:16;;;;;;;113.88;32.55;;;-0.10;99.90;;;;;;5087299;28;20483;-77
2022/01/10 06:51:42;;;;;;;108.60;30.23;;;-0.20;99.90;;;;;;5077047;28;20038;-77
2022/01/10 06:54:08;;;;;;;80.78;27.20;;;-0.30;99.90;;;;;;5075248;28;20526;-77
2022/01/10 06:56:33;;;;;;;81.88;28.08;;;-0.30;99.90;;;;;;5087764;28;20036;-77
2022/01/10 06:58:59;;;;;;;89.43;28.60;;;-0.40;99.90;;;;;;5084801;28;20493;-76
2022/01/10 07:01:24;;;;;;;86.82;28.52;;;-0.40;99.90;;;;;;5085909;28;20044;-77
2022/01/10 07:03:53;;;;;;;82.40;28.05;;;-0.40;99.90;;;;;;5083375;28;20123;-77
2022/01/10 07:06:19;;;;;;;91.72;28.23;;;-0.40;99.90;;;;;;5088317;28;20051;-77
2022/01/10 07:08:45;;;;;;;90.32;28.30;;;-0.40;99.90;;;;;;5086757;28;20040;-77
2022/01/10 07:11:10;;;;;;;73.47;25.08;;;-0.40;99.90;;;;;;5086798;28;20062;-77
2022/01/10 07:13:36;;;;;;;91.30;28.08;;;-0.40;99.90;;;;;;5090604;28;20036;-77
2022/01/10 07:16:01;;;;;;;98.30;33.05;;;-0.40;99.90;;;;;;5089355;28;20224;-77
2022/01/10 07:18:27;;;;;;;74.75;28.65;;;-0.50;99.90;;;;;;5096655;28;20036;-77
2022/01/10 07:20:52;;;;;;;96.25;31.42;;;-0.50;99.90;;;;;;5072009;28;20051;-77
2022/01/10 07:23:18;;;;;;;107.03;33.42;;;-0.40;99.90;;;;;;5095696;28;20047;-77
2022/01/10 07:25:43;;;;;;;101.38;32.78;;;-0.40;99.90;;;;;;5074754;28;20032;-77
2022/01/10 07:28:09;;;;;;;102.88;32.50;;;-0.50;99.90;;;;;;5090765;28;20040;-77
2022/01/10 07:30:35;;;;;;;98.40;29.90;;;-0.50;99.90;;;;;;5082205;28;20037;-78
2022/01/10 07:33:00;;;;;;;112.82;32.25;;;-0.50;99.90;;;;;;5086336;28;20036;-77
2022/01/10 07:35:26;;;;;;;86.28;29.42;;;-0.50;99.90;;;;;;5091013;28;20571;-77
2022/01/10 07:37:51;;;;;;;90.40;31.17;;;-0.40;99.90;;;;;;5099449;28;20253;-77
2022/01/10 07:40:17;;;;;;;103.70;32.15;;;-0.50;99.90;;;;;;5091648;28;20064;-78
2022/01/10 07:42:43;;;;;;;94.90;32.03;;;-0.50;99.90;;;;;;5074289;28;20119;-77
2022/01/10 07:45:09;;;;;;;98.93;33.33;;;-0.50;99.90;;;;;;5091478;28;20471;-77
2022/01/10 07:47:35;;;;;;;101.57;34.05;;;-0.50;99.90;;;;;;5096556;28;20043;-77
2022/01/10 07:50:01;;;;;;;99.07;33.58;;;-0.50;99.90;;;;;;5096891;28;20047;-78
2022/01/10 07:52:26;;;;;;;106.45;35.50;;;-0.50;99.90;;;;;;5094430;28;20043;-78
2022/01/10 07:54:53;;;;;;;97.60;34.65;;;-0.50;99.90;;;;;;5104028;28;20039;-77
2022/01/10 07:57:18;;;;;;;102.25;34.72;;;-0.50;99.90;;;;;;5106597;28;20512;-77
2022/01/10 07:59:45;;;;;;;126.43;38.03;;;-0.60;99.90;;;;;;5089079;28;20040;-77
2022/01/10 08:02:11;;;;;;;188.15;40.33;;;-0.50;99.90;;;;;;5099330;28;20036;-77
2022/01/10 08:04:36;;;;;;;116.25;34.63;;;-0.60;99.90;;;;;;5089407;28;20576;-77
2022/01/10 08:07:03;;;;;;;140.43;36.05;;;-0.60;99.90;;;;;;5082877;28;20036;-77
2022/01/10 08:09:29;;;;;;;117.90;34.50;;;-0.70;99.90;;;;;;5091263;28;20052;-77
2022/01/10 08:11:59;;;;;;;100.75;34.28;;;-0.60;99.90;;;;;;5093710;28;20040;-77
2022/01/10 08:14:27;;;;;;;120.22;37.30;;;-0.70;99.90;;;;;;5093113;28;20514;-77
2022/01/10 08:16:52;;;;;;;110.28;37.05;;;-0.60;99.90;;;;;;5091400;28;20079;-77
2022/01/10 08:19:18;;;;;;;130.80;40.38;;;-0.60;99.90;;;;;;5084754;28;20130;-77
2022/01/10 08:21:43;;;;;;;121.43;41.35;;;-0.50;99.90;;;;;;5099773;28;20371;-77
2022/01/10 08:24:09;;;;;;;110.32;37.58;;;-0.50;99.90;;;;;;5096247;28;20037;-77
2022/01/10 08:26:35;;;;;;;115.07;39.08;;;-0.40;99.90;;;;;;5089355;28;20035;-77
2022/01/10 08:29:00;;;;;;;141.70;42.38;;;-0.40;99.90;;;;;;5088823;28;20044;-76
2022/01/10 08:31:26;;;;;;;139.23;43.45;;;-0.30;99.90;;;;;;5087770;28;20039;-76
2022/01/10 08:33:52;;;;;;;122.68;40.33;;;-0.30;99.90;;;;;;5083928;28;20402;-77
2022/01/10 08:36:18;;;;;;;122.75;40.45;;;-0.30;99.90;;;;;;5089572;28;20035;-77
2022/01/10 08:38:43;;;;;;;131.73;41.80;;;-0.30;99.90;;;;;;5093206;28;20042;-76
2022/01/10 08:41:09;;;;;;;128.98;41.35;;;-0.30;99.90;;;;;;5083390;28;20464;-76
2022/01/10 08:43:35;;;;;;;127.90;40.65;;;-0.30;99.90;;;;;;5089789;28;20033;-76
2022/01/10 08:46:00;;;;;;;135.18;43.95;;;-0.30;99.90;;;;;;5097962;28;20032;-76
2022/01/10 08:48:26;;;;;;;134.88;44.03;;;-0.20;99.90;;;;;;5089238;28;20040;-77
2022/01/10 08:50:52;;;;;;;144.95;43.17;;;-0.10;99.90;;;;;;5102375;28;20032;-76
2022/01/10 08:53:17;;;;;;;150.52;46.17;;;-0.20;99.90;;;;;;5096890;28;20036;-77
2022/01/10 08:55:44;;;;;;;153.10;45.47;;;-0.10;99.90;;;;;;5096995;28;20040;-77
2022/01/10 08:58:10;;;;;;;149.73;44.75;;;-0.10;99.90;;;;;;5093470;28;20085;-77
2022/01/10 09:00:36;;;;;;;138.20;45.03;;;-0.10;99.90;;;;;;5087281;28;20113;-77
2022/01/10 09:03:02;;;;;;;169.50;48.17;;;-0.10;99.90;;;;;;5094638;28;20041;-77
2022/01/10 09:05:29;;;;;;;148.70;48.80;;;0.00;99.90;;;;;;5097797;28;20084;-76
2022/01/10 09:07:58;;;;;;;167.10;48.38;;;0.00;99.90;;;;;;5090247;28;20036;-77
2022/01/10 09:10:25;;;;;;;146.07;47.20;;;0.00;99.90;;;;;;5090196;28;20524;-77
2022/01/10 09:12:50;;;;;;;154.70;50.45;;;0.10;99.90;;;;;;5073141;28;20051;-77
2022/01/10 09:15:16;;;;;;;170.25;50.47;;;0.10;99.90;;;;;;5089788;28;20032;-77
2022/01/10 09:17:42;;;;;;;167.88;48.75;;;0.20;99.90;;;;;;5098601;28;20032;-76
2022/01/10 09:20:09;;;;;;;164.93;49.78;;;0.20;99.90;;;;;;5094100;28;20058;-77
2022/01/10 09:22:34;;;;;;;181.00;50.80;;;0.20;99.90;;;;;;5083113;28;20126;-76
2022/01/10 09:25:00;;;;;;;178.82;51.17;;;0.20;99.90;;;;;;5093135;28;20119;-76
2022/01/10 09:27:26;;;;;;;179.05;50.33;;;0.30;99.90;;;;;;5090202;28;20463;-76
2022/01/10 09:29:51;;;;;;;158.90;48.20;;;0.30;99.90;;;;;;5081029;28;20521;-76
2022/01/10 09:32:17;;;;;;;161.68;48.80;;;0.30;99.90;;;;;;5084979;28;20055;-75
2022/01/10 09:34:43;;;;;;;166.73;50.30;;;0.40;99.90;;;;;;5093595;28;20060;-75
2022/01/10 09:37:09;;;;;;;192.10;52.42;;;0.40;99.90;;;;;;5081062;28;20043;-74
2022/01/10 09:39:35;;;;;;;193.85;50.88;;;0.50;99.90;;;;;;5071822;28;20033;-75
2022/01/10 09:42:01;;;;;;;165.98;50.70;;;0.50;99.90;;;;;;5077421;28;20036;-67
2022/01/10 09:44:26;;;;;;;172.50;51.75;;;0.60;99.90;;;;;;5075740;28;20177;-68
2022/01/10 09:46:53;;;;;;;181.98;51.28;;;0.60;99.90;;;;;;5080882;28;20492;-66
2022/01/10 09:49:19;;;;;;;159.00;49.42;;;0.70;99.90;;;;;;5072347;28;20063;-67
2022/01/10 09:51:45;;;;;;;168.98;51.30;;;0.70;99.90;;;;;;5089420;28;20063;-66
2022/01/10 09:54:11;;;;;;;205.45;55.72;;;0.80;99.90;;;;;;5090062;28;20048;-67
2022/01/10 09:56:38;;;;;;;187.32;56.03;;;0.80;99.90;;;;;;5087176;28;20032;-69
2022/01/10 09:59:05;;;;;;;221.35;58.45;;;0.90;99.90;;;;;;5093047;28;20082;-67
2022/01/10 10:01:31;;;;;;;199.23;60.03;;;0.90;99.90;;;;;;5089477;28;20394;-67
2022/01/10 10:04:02;;;;;;;206.98;59.53;;;1.00;99.90;;;;;;5093191;28;20040;-67
2022/01/10 10:06:30;;;;;;;190.82;58.72;;;1.00;99.90;;;;;;5095381;28;20043;-68
2022/01/10 10:09:00;;;;;;;201.73;57.05;;;1.00;99.90;;;;;;5098104;28;20048;-67
2022/01/10 10:11:43;;;;;;;201.98;60.25;;;1.20;99.90;;;;;;5089206;28;20482;-67
2022/01/10 10:14:11;;;;;;;193.57;58.42;;;1.20;99.90;;;;;;5081447;28;20051;-68
2022/01/10 10:16:40;;;;;;;194.45;58.55;;;1.20;99.90;;;;;;5089121;28;20040;-67
2022/01/10 10:19:06;;;;;;;187.75;56.22;;;1.30;99.90;;;;;;5089360;28;20040;-67
2022/01/10 10:21:33;;;;;;;190.60;58.22;;;1.40;99.90;;;;;;5102696;28;20032;-66
2022/01/10 10:23:59;;;;;;;183.48;56.47;;;1.40;99.90;;;;;;5094579;28;20502;-68
2022/01/10 10:26:26;;;;;;;185.63;56.42;;;1.40;99.90;;;;;;5088921;28;20512;-67
2022/01/10 10:28:55;;;;;;;208.60;58.65;;;1.50;99.90;;;;;;5087998;28;20046;-66
2022/01/10 10:31:34;;;;;;;170.00;55.25;;;1.50;99.90;;;;;;5088791;28;20044;-68
2022/01/10 10:34:04;;;;;;;173.50;54.67;;;1.60;99.90;;;;;;5075728;28;20162;-68
2022/01/10 10:36:32;;;;;;;170.32;56.25;;;1.60;99.90;;;;;;5090505;28;20044;-67
2022/01/10 10:38:59;;;;;;;172.63;56.13;;;1.60;99.90;;;;;;5087281;28;20048;-67
2022/01/10 10:41:25;;;;;;;189.95;57.17;;;1.70;99.90;;;;;;5089057;28;20181;-68
2022/01/10 10:43:53;;;;;;;183.02;57.20;;;1.70;99.90;;;;;;5072096;28;20119;-68
2022/01/10 10:46:24;;;;;;;181.93;56.95;;;1.80;99.90;;;;;;5091703;28;20616;-67
2022/01/10 10:48:52;;;;;;;186.98;59.10;;;1.80;99.90;;;;;;5074805;28;20101;-66
2022/01/10 10:54:32;;;;;;;177.98;56.72;;;1.80;99.90;;;;;;5098259;28;20498;-66
2022/01/10 10:56:59;;;;;;;188.80;58.53;;;1.80;99.90;;;;;;5100857;28;20497;-66
2022/01/10 10:59:29;;;;;;;175.15;58.30;;;1.80;99.90;;;;;;5108958;28;20036;-67
2022/01/10 11:02:10;;;;;;;194.60;61.42;;;1.80;99.90;;;;;;5112264;28;20050;-66
2022/01/10 11:04:36;;;;;;;186.73;60.08;;;1.80;99.90;;;;;;5098767;28;20027;-66
2022/01/10 11:07:02;;;;;;;176.48;57.95;;;1.90;99.90;;;;;;5099799;28;20098;-67
2022/01/10 11:09:28;;;;;;;191.80;59.88;;;1.90;99.90;;;;;;5089960;28;20506;-67
2022/01/10 11:11:54;;;;;;;213.18;63.17;;;2.00;99.90;;;;;;5093084;28;20044;-68
2022/01/10 11:14:22;;;;;;;198.50;64.22;;;2.10;99.90;;;;;;5094758;28;20474;-67
2022/01/10 11:16:50;;;;;;;215.23;65.75;;;2.10;99.90;;;;;;5090016;28;20032;-67
2022/01/10 11:19:26;;;;;;;215.93;67.75;;;2.20;99.90;;;;;;5104706;28;20161;-67
2022/01/10 11:21:59;;;;;;;208.60;66.63;;;2.30;99.90;;;;;;5092571;28;20376;-67
2022/01/10 11:24:42;;;;;;;208.65;67.03;;;2.40;99.90;;;;;;5073737;28;20040;-68
2022/01/10 11:27:35;;;;;;;214.48;65.68;;;2.50;99.90;;;;;;5092185;28;20153;-68
2022/01/10 11:30:35;;;;;;;209.73;66.55;;;2.60;99.90;;;;;;5086946;28;20113;-67
2022/01/10 11:33:10;;;;;;;218.38;66.28;;;2.70;99.90;;;;;;5092313;28;20470;-67
2022/01/10 11:35:44;;;;;;;198.35;65.55;;;2.80;99.90;;;;;;5092831;28;20441;-67
2022/01/10 11:38:18;;;;;;;217.10;64.57;;;2.90;99.90;;;;;;5073620;28;20503;-68
2022/01/10 11:40:45;;;;;;;205.63;65.88;;;2.90;99.90;;;;;;5086643;28;20032;-67
2022/01/10 11:43:44;;;;;;;194.45;65.70;;;3.00;99.90;;;;;;5080726;28;20086;-67
2022/01/10 11:46:39;;;;;;;195.13;63.10;;;3.10;99.90;;;;;;5093283;28;20032;-67
2022/01/10 11:49:15;;;;;;;196.82;62.20;;;3.20;99.90;;;;;;5092803;28;20066;-67
2022/01/10 11:51:52;;;;;;;188.57;65.57;;;3.20;99.90;;;;;;5079089;28;20082;-68
2022/01/10 11:54:26;;;;;;;193.85;64.72;;;3.30;99.90;;;;;;5088730;28;20040;-67
2022/01/10 11:57:01;;;;;;;196.00;66.70;;;3.30;99.90;;;;;;5089447;28;20430;-68
2022/01/10 11:59:38;;;;;;;186.35;64.65;;;3.40;99.90;;;;;;5093629;28;20028;-67
2022/01/10 12:02:10;;;;;;;184.90;63.88;;;3.40;99.90;;;;;;5090638;28;20429;-67
2022/01/10 12:04:38;;;;;;;195.48;64.72;;;3.50;99.90;;;;;;5092178;28;20047;-68
2022/01/10 12:07:07;;;;;;;188.07;64.43;;;3.50;99.90;;;;;;5091172;28;20044;-67
2022/01/10 12:09:34;;;;;;;193.40;63.30;;;3.60;99.90;;;;;;5091119;28;20043;-67
2022/01/10 12:12:01;;;;;;;183.50;63.17;;;3.60;99.90;;;;;;5082534;28;20138;-67
2022/01/10 12:14:27;;;;;;;198.13;64.82;;;3.70;99.90;;;;;;5101780;28;20491;-68
2022/01/10 12:16:54;;;;;;;188.15;66.00;;;3.70;99.90;;;;;;5091061;28;20043;-68
2022/01/10 12:19:20;;;;;;;188.60;66.88;;;3.70;99.90;;;;;;5091080;28;20028;-68
2022/01/10 12:21:47;;;;;;;186.00;63.35;;;3.80;99.90;;;;;;5091496;28;20048;-68
2022/01/10 12:24:13;;;;;;;174.10;63.90;;;3.80;99.90;;;;;;5092893;28;20051;-68
2022/01/10 12:26:40;;;;;;;178.55;62.53;;;3.90;99.90;;;;;;5101451;28;20032;-68
2022/01/10 12:29:08;;;;;;;176.38;62.92;;;3.90;99.90;;;;;;5088961;28;20035;-68
2022/01/10 12:31:35;;;;;;;168.65;60.78;;;4.00;99.90;;;;;;5075152;28;20449;-68
2022/01/10 12:34:02;;;;;;;172.10;60.90;;;4.00;99.90;;;;;;5092537;28;20039;-69
2022/01/10 12:36:29;;;;;;;160.95;59.03;;;4.10;99.90;;;;;;5085508;28;20077;-69
2022/01/10 12:39:09;;;;;;;172.48;63.08;;;4.10;99.90;;;;;;5096628;28;20040;-69
2022/01/10 12:41:36;;;;;;;171.82;59.05;;;4.10;99.90;;;;;;5089809;28;20047;-69